<?xml version="1.0" encoding="UTF-8" standalone="no" ?>
<gpx xmlns="http://www.topografix.com/GPX/1/1" xmlns:xsi="http://www.w3.org/2001/XMLSchema-instance" xsi:schemaLocation="http://www.topografix.com/GPX/1/1 http://www.topografix.com/GPX/1/1/gpx.xsd" version="1.1" creator="VisuGPX - https://www.visugpx.com">
  <metadata>
    <name>St Guilhem</name>
    <desc><![CDATA[StGuilhem]]></desc>
  </metadata>
  <trk>
    <name><![CDATA[StGuilhem]]></name>
    <trkseg>
      <trkpt lat="43.72414" lon="3.55048">
        <ele>78</ele>
        <time>2016-02-13T09:09:07Z</time>
      </trkpt>
      <trkpt lat="43.72434" lon="3.55056">
        <ele>69</ele>
        <time>2016-02-13T09:11:14Z</time>
      </trkpt>
      <trkpt lat="43.72454" lon="3.55044">
        <ele>70</ele>
        <time>2016-02-13T09:11:36Z</time>
      </trkpt>
      <trkpt lat="43.72529" lon="3.55033">
        <ele>70</ele>
        <time>2016-02-13T09:12:44Z</time>
      </trkpt>
      <trkpt lat="43.72573" lon="3.55018">
        <ele>70</ele>
        <time>2016-02-13T09:13:25Z</time>
      </trkpt>
      <trkpt lat="43.72642" lon="3.5502">
        <ele>72</ele>
        <time>2016-02-13T09:14:22Z</time>
      </trkpt>
      <trkpt lat="43.7266" lon="3.55026">
        <ele>72</ele>
        <time>2016-02-13T09:15:02Z</time>
      </trkpt>
      <trkpt lat="43.72649" lon="3.55039">
        <ele>70</ele>
        <time>2016-02-13T09:16:32Z</time>
      </trkpt>
      <trkpt lat="43.7266" lon="3.55026">
        <ele>72</ele>
        <time>2016-02-13T09:20:22Z</time>
      </trkpt>
      <trkpt lat="43.7268" lon="3.55026">
        <ele>78</ele>
        <time>2016-02-13T09:20:47Z</time>
      </trkpt>
      <trkpt lat="43.72724" lon="3.55042">
        <ele>79</ele>
        <time>2016-02-13T09:21:24Z</time>
      </trkpt>
      <trkpt lat="43.72743" lon="3.55055">
        <ele>76</ele>
        <time>2016-02-13T09:21:42Z</time>
      </trkpt>
      <trkpt lat="43.72762" lon="3.55076">
        <ele>78</ele>
        <time>2016-02-13T09:22:01Z</time>
      </trkpt>
      <trkpt lat="43.7282" lon="3.55113">
        <ele>76</ele>
        <time>2016-02-13T09:22:53Z</time>
      </trkpt>
      <trkpt lat="43.72871" lon="3.55168">
        <ele>75</ele>
        <time>2016-02-13T09:24:01Z</time>
      </trkpt>
      <trkpt lat="43.72953" lon="3.55241">
        <ele>79</ele>
        <time>2016-02-13T09:25:20Z</time>
      </trkpt>
      <trkpt lat="43.72997" lon="3.55268">
        <ele>76</ele>
        <time>2016-02-13T09:26:04Z</time>
      </trkpt>
      <trkpt lat="43.73105" lon="3.55317">
        <ele>81</ele>
        <time>2016-02-13T09:27:36Z</time>
      </trkpt>
      <trkpt lat="43.73192" lon="3.55338">
        <ele>80</ele>
        <time>2016-02-13T09:32:35Z</time>
      </trkpt>
      <trkpt lat="43.73257" lon="3.55371">
        <ele>83</ele>
        <time>2016-02-13T09:33:31Z</time>
      </trkpt>
      <trkpt lat="43.73305" lon="3.55375">
        <ele>83</ele>
        <time>2016-02-13T09:34:11Z</time>
      </trkpt>
      <trkpt lat="43.7334" lon="3.55333">
        <ele>93</ele>
        <time>2016-02-13T09:34:47Z</time>
      </trkpt>
      <trkpt lat="43.73366" lon="3.55237">
        <ele>103</ele>
        <time>2016-02-13T09:35:43Z</time>
      </trkpt>
      <trkpt lat="43.73377" lon="3.55223">
        <ele>104</ele>
        <time>2016-02-13T09:35:52Z</time>
      </trkpt>
      <trkpt lat="43.73397" lon="3.55167">
        <ele>106</ele>
        <time>2016-02-13T09:36:28Z</time>
      </trkpt>
      <trkpt lat="43.73379" lon="3.55081">
        <ele>112</ele>
        <time>2016-02-13T09:37:24Z</time>
      </trkpt>
      <trkpt lat="43.73397" lon="3.55">
        <ele>115</ele>
        <time>2016-02-13T09:38:12Z</time>
      </trkpt>
      <trkpt lat="43.73426" lon="3.54979">
        <ele>126</ele>
        <time>2016-02-13T09:38:37Z</time>
      </trkpt>
      <trkpt lat="43.73444" lon="3.54921">
        <ele>124</ele>
        <time>2016-02-13T09:39:23Z</time>
      </trkpt>
      <trkpt lat="43.73443" lon="3.54855">
        <ele>113</ele>
        <time>2016-02-13T09:39:52Z</time>
      </trkpt>
      <trkpt lat="43.73466" lon="3.54812">
        <ele>111</ele>
        <time>2016-02-13T09:40:55Z</time>
      </trkpt>
      <trkpt lat="43.73508" lon="3.54798">
        <ele>113</ele>
        <time>2016-02-13T09:41:26Z</time>
      </trkpt>
      <trkpt lat="43.73523" lon="3.54816">
        <ele>113</ele>
        <time>2016-02-13T09:41:45Z</time>
      </trkpt>
      <trkpt lat="43.73563" lon="3.54845">
        <ele>123</ele>
        <time>2016-02-13T09:42:33Z</time>
      </trkpt>
      <trkpt lat="43.73583" lon="3.54838">
        <ele>120</ele>
        <time>2016-02-13T09:44:58Z</time>
      </trkpt>
      <trkpt lat="43.73594" lon="3.54849">
        <ele>129</ele>
        <time>2016-02-13T09:45:22Z</time>
      </trkpt>
      <trkpt lat="43.73576" lon="3.54874">
        <ele>128</ele>
        <time>2016-02-13T09:45:53Z</time>
      </trkpt>
      <trkpt lat="43.73595" lon="3.54873">
        <ele>137</ele>
        <time>2016-02-13T09:46:44Z</time>
      </trkpt>
      <trkpt lat="43.73613" lon="3.54895">
        <ele>142</ele>
        <time>2016-02-13T09:47:14Z</time>
      </trkpt>
      <trkpt lat="43.73639" lon="3.54904">
        <ele>148</ele>
        <time>2016-02-13T09:47:40Z</time>
      </trkpt>
      <trkpt lat="43.7366" lon="3.54901">
        <ele>153</ele>
        <time>2016-02-13T09:48:04Z</time>
      </trkpt>
      <trkpt lat="43.7368" lon="3.54887">
        <ele>161</ele>
        <time>2016-02-13T09:48:26Z</time>
      </trkpt>
      <trkpt lat="43.737" lon="3.54883">
        <ele>163</ele>
        <time>2016-02-13T09:48:49Z</time>
      </trkpt>
      <trkpt lat="43.73716" lon="3.54872">
        <ele>165</ele>
        <time>2016-02-13T09:49:14Z</time>
      </trkpt>
      <trkpt lat="43.73725" lon="3.54846">
        <ele>164</ele>
        <time>2016-02-13T09:49:45Z</time>
      </trkpt>
      <trkpt lat="43.7374" lon="3.54841">
        <ele>167</ele>
        <time>2016-02-13T09:50:31Z</time>
      </trkpt>
      <trkpt lat="43.73774" lon="3.5481">
        <ele>181</ele>
        <time>2016-02-13T09:51:23Z</time>
      </trkpt>
      <trkpt lat="43.73777" lon="3.54778">
        <ele>180</ele>
        <time>2016-02-13T09:51:47Z</time>
      </trkpt>
      <trkpt lat="43.73774" lon="3.54751">
        <ele>175</ele>
        <time>2016-02-13T09:52:12Z</time>
      </trkpt>
      <trkpt lat="43.73792" lon="3.54791">
        <ele>185</ele>
        <time>2016-02-13T09:53:32Z</time>
      </trkpt>
      <trkpt lat="43.73793" lon="3.54819">
        <ele>186</ele>
        <time>2016-02-13T09:53:58Z</time>
      </trkpt>
      <trkpt lat="43.73772" lon="3.54882">
        <ele>189</ele>
        <time>2016-02-13T09:54:54Z</time>
      </trkpt>
      <trkpt lat="43.73771" lon="3.54909">
        <ele>190</ele>
        <time>2016-02-13T09:55:22Z</time>
      </trkpt>
      <trkpt lat="43.7378" lon="3.54889">
        <ele>191</ele>
        <time>2016-02-13T09:55:42Z</time>
      </trkpt>
      <trkpt lat="43.73792" lon="3.54905">
        <ele>192</ele>
        <time>2016-02-13T09:56:33Z</time>
      </trkpt>
      <trkpt lat="43.73808" lon="3.54894">
        <ele>193</ele>
        <time>2016-02-13T10:00:34Z</time>
      </trkpt>
      <trkpt lat="43.73833" lon="3.54858">
        <ele>198</ele>
        <time>2016-02-13T10:01:50Z</time>
      </trkpt>
      <trkpt lat="43.73843" lon="3.54835">
        <ele>206</ele>
        <time>2016-02-13T10:02:15Z</time>
      </trkpt>
      <trkpt lat="43.739" lon="3.54754">
        <ele>215</ele>
        <time>2016-02-13T10:04:02Z</time>
      </trkpt>
      <trkpt lat="43.73909" lon="3.54726">
        <ele>212</ele>
        <time>2016-02-13T10:04:27Z</time>
      </trkpt>
      <trkpt lat="43.74014" lon="3.5459">
        <ele>235</ele>
        <time>2016-02-13T10:06:48Z</time>
      </trkpt>
      <trkpt lat="43.74023" lon="3.54563">
        <ele>241</ele>
        <time>2016-02-13T10:07:12Z</time>
      </trkpt>
      <trkpt lat="43.74026" lon="3.54489">
        <ele>247</ele>
        <time>2016-02-13T10:08:06Z</time>
      </trkpt>
      <trkpt lat="43.74037" lon="3.5446">
        <ele>249</ele>
        <time>2016-02-13T10:08:26Z</time>
      </trkpt>
      <trkpt lat="43.74056" lon="3.54445">
        <ele>251</ele>
        <time>2016-02-13T10:08:46Z</time>
      </trkpt>
      <trkpt lat="43.74079" lon="3.54438">
        <ele>254</ele>
        <time>2016-02-13T10:09:06Z</time>
      </trkpt>
      <trkpt lat="43.74082" lon="3.54402">
        <ele>258</ele>
        <time>2016-02-13T10:09:30Z</time>
      </trkpt>
      <trkpt lat="43.74108" lon="3.5436">
        <ele>270</ele>
        <time>2016-02-13T10:10:15Z</time>
      </trkpt>
      <trkpt lat="43.74125" lon="3.54308">
        <ele>274</ele>
        <time>2016-02-13T10:11:17Z</time>
      </trkpt>
      <trkpt lat="43.74128" lon="3.54274">
        <ele>275</ele>
        <time>2016-02-13T10:12:08Z</time>
      </trkpt>
      <trkpt lat="43.74142" lon="3.54252">
        <ele>276</ele>
        <time>2016-02-13T10:12:35Z</time>
      </trkpt>
      <trkpt lat="43.74155" lon="3.54218">
        <ele>281</ele>
        <time>2016-02-13T10:13:53Z</time>
      </trkpt>
      <trkpt lat="43.74129" lon="3.54275">
        <ele>275</ele>
        <time>2016-02-13T10:17:37Z</time>
      </trkpt>
      <trkpt lat="43.74125" lon="3.54301">
        <ele>275</ele>
        <time>2016-02-13T10:17:57Z</time>
      </trkpt>
      <trkpt lat="43.74131" lon="3.54323">
        <ele>275</ele>
        <time>2016-02-13T10:18:13Z</time>
      </trkpt>
      <trkpt lat="43.74143" lon="3.54334">
        <ele>273</ele>
        <time>2016-02-13T10:18:56Z</time>
      </trkpt>
      <trkpt lat="43.74138" lon="3.54394">
        <ele>272</ele>
        <time>2016-02-13T10:19:55Z</time>
      </trkpt>
      <trkpt lat="43.74148" lon="3.54448">
        <ele>270</ele>
        <time>2016-02-13T10:20:41Z</time>
      </trkpt>
      <trkpt lat="43.74157" lon="3.54477">
        <ele>272</ele>
        <time>2016-02-13T10:21:04Z</time>
      </trkpt>
      <trkpt lat="43.74152" lon="3.54509">
        <ele>271</ele>
        <time>2016-02-13T10:21:33Z</time>
      </trkpt>
      <trkpt lat="43.7417" lon="3.54561">
        <ele>284</ele>
        <time>2016-02-13T10:22:31Z</time>
      </trkpt>
      <trkpt lat="43.74184" lon="3.54587">
        <ele>283</ele>
        <time>2016-02-13T10:23:00Z</time>
      </trkpt>
      <trkpt lat="43.74203" lon="3.54609">
        <ele>285</ele>
        <time>2016-02-13T10:23:30Z</time>
      </trkpt>
      <trkpt lat="43.74218" lon="3.54621">
        <ele>286</ele>
        <time>2016-02-13T10:23:48Z</time>
      </trkpt>
      <trkpt lat="43.74305" lon="3.54635">
        <ele>292</ele>
        <time>2016-02-13T10:25:12Z</time>
      </trkpt>
      <trkpt lat="43.74365" lon="3.54662">
        <ele>290</ele>
        <time>2016-02-13T10:26:12Z</time>
      </trkpt>
      <trkpt lat="43.7441" lon="3.54701">
        <ele>278</ele>
        <time>2016-02-13T10:27:10Z</time>
      </trkpt>
      <trkpt lat="43.74428" lon="3.54699">
        <ele>275</ele>
        <time>2016-02-13T10:27:31Z</time>
      </trkpt>
      <trkpt lat="43.7444" lon="3.54688">
        <ele>275</ele>
        <time>2016-02-13T10:27:47Z</time>
      </trkpt>
      <trkpt lat="43.74463" lon="3.54653">
        <ele>281</ele>
        <time>2016-02-13T10:28:24Z</time>
      </trkpt>
      <trkpt lat="43.74483" lon="3.54645">
        <ele>279</ele>
        <time>2016-02-13T10:28:42Z</time>
      </trkpt>
      <trkpt lat="43.74497" lon="3.54654">
        <ele>276</ele>
        <time>2016-02-13T10:29:08Z</time>
      </trkpt>
      <trkpt lat="43.74503" lon="3.54691">
        <ele>276</ele>
        <time>2016-02-13T10:29:42Z</time>
      </trkpt>
      <trkpt lat="43.74519" lon="3.54716">
        <ele>277</ele>
        <time>2016-02-13T10:30:13Z</time>
      </trkpt>
      <trkpt lat="43.74524" lon="3.54737">
        <ele>277</ele>
        <time>2016-02-13T10:30:35Z</time>
      </trkpt>
      <trkpt lat="43.74527" lon="3.54768">
        <ele>279</ele>
        <time>2016-02-13T10:31:05Z</time>
      </trkpt>
      <trkpt lat="43.74519" lon="3.54839">
        <ele>275</ele>
        <time>2016-02-13T10:32:17Z</time>
      </trkpt>
      <trkpt lat="43.74531" lon="3.54864">
        <ele>275</ele>
        <time>2016-02-13T10:34:41Z</time>
      </trkpt>
      <trkpt lat="43.74555" lon="3.54878">
        <ele>277</ele>
        <time>2016-02-13T10:35:12Z</time>
      </trkpt>
      <trkpt lat="43.74584" lon="3.54866">
        <ele>291</ele>
        <time>2016-02-13T10:35:48Z</time>
      </trkpt>
      <trkpt lat="43.74606" lon="3.54869">
        <ele>292</ele>
        <time>2016-02-13T10:36:23Z</time>
      </trkpt>
      <trkpt lat="43.74625" lon="3.54897">
        <ele>292</ele>
        <time>2016-02-13T10:37:06Z</time>
      </trkpt>
      <trkpt lat="43.74646" lon="3.54911">
        <ele>295</ele>
        <time>2016-02-13T10:37:42Z</time>
      </trkpt>
      <trkpt lat="43.74717" lon="3.54898">
        <ele>307</ele>
        <time>2016-02-13T10:39:29Z</time>
      </trkpt>
      <trkpt lat="43.74741" lon="3.54884">
        <ele>309</ele>
        <time>2016-02-13T10:40:01Z</time>
      </trkpt>
      <trkpt lat="43.74791" lon="3.54889">
        <ele>314</ele>
        <time>2016-02-13T10:40:54Z</time>
      </trkpt>
      <trkpt lat="43.74808" lon="3.549">
        <ele>314</ele>
        <time>2016-02-13T10:42:04Z</time>
      </trkpt>
      <trkpt lat="43.74808" lon="3.5494">
        <ele>310</ele>
        <time>2016-02-13T10:42:46Z</time>
      </trkpt>
      <trkpt lat="43.74794" lon="3.55018">
        <ele>306</ele>
        <time>2016-02-13T10:45:08Z</time>
      </trkpt>
      <trkpt lat="43.74782" lon="3.5503">
        <ele>305</ele>
        <time>2016-02-13T10:47:33Z</time>
      </trkpt>
      <trkpt lat="43.74784" lon="3.55055">
        <ele>304</ele>
        <time>2016-02-13T10:50:07Z</time>
      </trkpt>
      <trkpt lat="43.74787" lon="3.55026">
        <ele>305</ele>
        <time>2016-02-13T10:50:51Z</time>
      </trkpt>
      <trkpt lat="43.74805" lon="3.54973">
        <ele>309</ele>
        <time>2016-02-13T10:52:09Z</time>
      </trkpt>
      <trkpt lat="43.74808" lon="3.5491">
        <ele>313</ele>
        <time>2016-02-13T10:53:16Z</time>
      </trkpt>
      <trkpt lat="43.7484" lon="3.54892">
        <ele>311</ele>
        <time>2016-02-13T10:54:12Z</time>
      </trkpt>
      <trkpt lat="43.7488" lon="3.549">
        <ele>308</ele>
        <time>2016-02-13T10:54:55Z</time>
      </trkpt>
      <trkpt lat="43.74907" lon="3.54922">
        <ele>299</ele>
        <time>2016-02-13T10:55:23Z</time>
      </trkpt>
      <trkpt lat="43.7493" lon="3.54957">
        <ele>293</ele>
        <time>2016-02-13T10:56:02Z</time>
      </trkpt>
      <trkpt lat="43.74945" lon="3.5497">
        <ele>292</ele>
        <time>2016-02-13T10:56:22Z</time>
      </trkpt>
      <trkpt lat="43.74998" lon="3.54949">
        <ele>292</ele>
        <time>2016-02-13T10:57:49Z</time>
      </trkpt>
      <trkpt lat="43.74996" lon="3.54981">
        <ele>292</ele>
        <time>2016-02-13T10:59:47Z</time>
      </trkpt>
      <trkpt lat="43.74991" lon="3.55002">
        <ele>290</ele>
        <time>2016-02-13T11:00:05Z</time>
      </trkpt>
      <trkpt lat="43.75003" lon="3.55027">
        <ele>296</ele>
        <time>2016-02-13T11:00:35Z</time>
      </trkpt>
      <trkpt lat="43.75023" lon="3.55044">
        <ele>297</ele>
        <time>2016-02-13T11:01:07Z</time>
      </trkpt>
      <trkpt lat="43.75047" lon="3.55051">
        <ele>302</ele>
        <time>2016-02-13T11:01:44Z</time>
      </trkpt>
      <trkpt lat="43.75064" lon="3.55063">
        <ele>307</ele>
        <time>2016-02-13T11:02:21Z</time>
      </trkpt>
      <trkpt lat="43.75073" lon="3.55099">
        <ele>301</ele>
        <time>2016-02-13T11:03:00Z</time>
      </trkpt>
      <trkpt lat="43.75062" lon="3.55114">
        <ele>291</ele>
        <time>2016-02-13T11:12:44Z</time>
      </trkpt>
      <trkpt lat="43.75069" lon="3.55134">
        <ele>288</ele>
        <time>2016-02-13T11:14:13Z</time>
      </trkpt>
      <trkpt lat="43.75075" lon="3.55105">
        <ele>298</ele>
        <time>2016-02-13T11:16:01Z</time>
      </trkpt>
      <trkpt lat="43.75066" lon="3.55118">
        <ele>291</ele>
        <time>2016-02-13T11:28:33Z</time>
      </trkpt>
      <trkpt lat="43.75074" lon="3.55148">
        <ele>286</ele>
        <time>2016-02-13T11:30:23Z</time>
      </trkpt>
      <trkpt lat="43.75096" lon="3.55156">
        <ele>301</ele>
        <time>2016-02-13T11:30:55Z</time>
      </trkpt>
      <trkpt lat="43.75095" lon="3.55225">
        <ele>287</ele>
        <time>2016-02-13T11:32:12Z</time>
      </trkpt>
      <trkpt lat="43.75106" lon="3.55238">
        <ele>287</ele>
        <time>2016-02-13T11:33:29Z</time>
      </trkpt>
      <trkpt lat="43.75146" lon="3.55254">
        <ele>293</ele>
        <time>2016-02-13T11:34:14Z</time>
      </trkpt>
      <trkpt lat="43.75109" lon="3.5524">
        <ele>288</ele>
        <time>2016-02-13T11:35:56Z</time>
      </trkpt>
      <trkpt lat="43.75142" lon="3.55169">
        <ele>305</ele>
        <time>2016-02-13T11:39:05Z</time>
      </trkpt>
      <trkpt lat="43.75135" lon="3.55137">
        <ele>315</ele>
        <time>2016-02-13T11:39:53Z</time>
      </trkpt>
      <trkpt lat="43.75115" lon="3.55126">
        <ele>313</ele>
        <time>2016-02-13T11:40:34Z</time>
      </trkpt>
      <trkpt lat="43.75119" lon="3.55103">
        <ele>317</ele>
        <time>2016-02-13T11:41:36Z</time>
      </trkpt>
      <trkpt lat="43.75132" lon="3.55059">
        <ele>329</ele>
        <time>2016-02-13T11:42:48Z</time>
      </trkpt>
      <trkpt lat="43.75165" lon="3.55028">
        <ele>334</ele>
        <time>2016-02-13T11:43:59Z</time>
      </trkpt>
      <trkpt lat="43.75173" lon="3.55012">
        <ele>344</ele>
        <time>2016-02-13T11:44:20Z</time>
      </trkpt>
      <trkpt lat="43.75191" lon="3.54994">
        <ele>350</ele>
        <time>2016-02-13T11:44:54Z</time>
      </trkpt>
      <trkpt lat="43.75215" lon="3.54981">
        <ele>353</ele>
        <time>2016-02-13T11:45:34Z</time>
      </trkpt>
      <trkpt lat="43.75229" lon="3.5496">
        <ele>355</ele>
        <time>2016-02-13T11:46:18Z</time>
      </trkpt>
      <trkpt lat="43.75304" lon="3.54917">
        <ele>387</ele>
        <time>2016-02-13T11:50:22Z</time>
      </trkpt>
      <trkpt lat="43.75336" lon="3.54884">
        <ele>408</ele>
        <time>2016-02-13T11:53:36Z</time>
      </trkpt>
      <trkpt lat="43.75358" lon="3.54882">
        <ele>411</ele>
        <time>2016-02-13T11:54:59Z</time>
      </trkpt>
      <trkpt lat="43.75377" lon="3.54888">
        <ele>414</ele>
        <time>2016-02-13T11:56:19Z</time>
      </trkpt>
      <trkpt lat="43.75389" lon="3.54865">
        <ele>416</ele>
        <time>2016-02-13T11:58:31Z</time>
      </trkpt>
      <trkpt lat="43.75425" lon="3.54872">
        <ele>433</ele>
        <time>2016-02-13T12:05:39Z</time>
      </trkpt>
      <trkpt lat="43.7548" lon="3.54841">
        <ele>441</ele>
        <time>2016-02-13T12:07:26Z</time>
      </trkpt>
      <trkpt lat="43.75553" lon="3.54842">
        <ele>456</ele>
        <time>2016-02-13T12:09:45Z</time>
      </trkpt>
      <trkpt lat="43.75578" lon="3.54829">
        <ele>461</ele>
        <time>2016-02-13T12:10:28Z</time>
      </trkpt>
      <trkpt lat="43.75641" lon="3.54843">
        <ele>484</ele>
        <time>2016-02-13T12:14:48Z</time>
      </trkpt>
      <trkpt lat="43.75679" lon="3.54842">
        <ele>503</ele>
        <time>2016-02-13T12:17:49Z</time>
      </trkpt>
      <trkpt lat="43.75695" lon="3.54829">
        <ele>505</ele>
        <time>2016-02-13T12:19:38Z</time>
      </trkpt>
      <trkpt lat="43.75716" lon="3.54835">
        <ele>513</ele>
        <time>2016-02-13T12:21:04Z</time>
      </trkpt>
      <trkpt lat="43.75724" lon="3.54851">
        <ele>515</ele>
        <time>2016-02-13T12:21:39Z</time>
      </trkpt>
      <trkpt lat="43.75782" lon="3.54809">
        <ele>535</ele>
        <time>2016-02-13T12:23:41Z</time>
      </trkpt>
      <trkpt lat="43.75831" lon="3.54814">
        <ele>542</ele>
        <time>2016-02-13T12:26:28Z</time>
      </trkpt>
      <trkpt lat="43.75851" lon="3.54772">
        <ele>548</ele>
        <time>2016-02-13T12:28:36Z</time>
      </trkpt>
      <trkpt lat="43.75866" lon="3.54764">
        <ele>548</ele>
        <time>2016-02-13T12:29:43Z</time>
      </trkpt>
      <trkpt lat="43.75882" lon="3.54744">
        <ele>552</ele>
        <time>2016-02-13T12:30:17Z</time>
      </trkpt>
      <trkpt lat="43.75894" lon="3.54717">
        <ele>553</ele>
        <time>2016-02-13T12:31:01Z</time>
      </trkpt>
      <trkpt lat="43.75901" lon="3.54684">
        <ele>557</ele>
        <time>2016-02-13T12:32:18Z</time>
      </trkpt>
      <trkpt lat="43.75899" lon="3.54644">
        <ele>563</ele>
        <time>2016-02-13T12:33:28Z</time>
      </trkpt>
      <trkpt lat="43.75883" lon="3.54658">
        <ele>561</ele>
        <time>2016-02-13T13:20:00Z</time>
      </trkpt>
      <trkpt lat="43.75893" lon="3.54637">
        <ele>563</ele>
        <time>2016-02-13T13:29:08Z</time>
      </trkpt>
      <trkpt lat="43.7591" lon="3.54544">
        <ele>573</ele>
        <time>2016-02-13T13:31:46Z</time>
      </trkpt>
      <trkpt lat="43.75948" lon="3.54508">
        <ele>581</ele>
        <time>2016-02-13T13:33:14Z</time>
      </trkpt>
      <trkpt lat="43.75968" lon="3.54442">
        <ele>591</ele>
        <time>2016-02-13T13:34:29Z</time>
      </trkpt>
      <trkpt lat="43.75984" lon="3.5442">
        <ele>598</ele>
        <time>2016-02-13T13:35:05Z</time>
      </trkpt>
      <trkpt lat="43.76012" lon="3.54384">
        <ele>612</ele>
        <time>2016-02-13T13:36:11Z</time>
      </trkpt>
      <trkpt lat="43.76027" lon="3.54377">
        <ele>613</ele>
        <time>2016-02-13T13:36:32Z</time>
      </trkpt>
      <trkpt lat="43.76048" lon="3.54387">
        <ele>615</ele>
        <time>2016-02-13T13:37:04Z</time>
      </trkpt>
      <trkpt lat="43.76082" lon="3.54417">
        <ele>622</ele>
        <time>2016-02-13T13:38:43Z</time>
      </trkpt>
      <trkpt lat="43.76118" lon="3.54404">
        <ele>618</ele>
        <time>2016-02-13T13:39:35Z</time>
      </trkpt>
      <trkpt lat="43.76129" lon="3.54385">
        <ele>616</ele>
        <time>2016-02-13T13:39:56Z</time>
      </trkpt>
      <trkpt lat="43.76122" lon="3.54354">
        <ele>616</ele>
        <time>2016-02-13T13:40:28Z</time>
      </trkpt>
      <trkpt lat="43.76101" lon="3.54309">
        <ele>610</ele>
        <time>2016-02-13T13:41:24Z</time>
      </trkpt>
      <trkpt lat="43.76047" lon="3.54234">
        <ele>609</ele>
        <time>2016-02-13T13:42:54Z</time>
      </trkpt>
      <trkpt lat="43.76053" lon="3.54204">
        <ele>607</ele>
        <time>2016-02-13T13:43:31Z</time>
      </trkpt>
      <trkpt lat="43.76048" lon="3.54174">
        <ele>606</ele>
        <time>2016-02-13T13:44:44Z</time>
      </trkpt>
      <trkpt lat="43.76039" lon="3.54145">
        <ele>600</ele>
        <time>2016-02-13T13:45:22Z</time>
      </trkpt>
      <trkpt lat="43.76025" lon="3.54124">
        <ele>599</ele>
        <time>2016-02-13T13:45:49Z</time>
      </trkpt>
      <trkpt lat="43.75987" lon="3.54081">
        <ele>589</ele>
        <time>2016-02-13T13:46:54Z</time>
      </trkpt>
      <trkpt lat="43.75968" lon="3.54067">
        <ele>582</ele>
        <time>2016-02-13T13:47:20Z</time>
      </trkpt>
      <trkpt lat="43.75931" lon="3.54057">
        <ele>578</ele>
        <time>2016-02-13T13:48:14Z</time>
      </trkpt>
      <trkpt lat="43.75922" lon="3.54033">
        <ele>576</ele>
        <time>2016-02-13T13:49:01Z</time>
      </trkpt>
      <trkpt lat="43.75909" lon="3.54015">
        <ele>566</ele>
        <time>2016-02-13T13:50:02Z</time>
      </trkpt>
      <trkpt lat="43.75886" lon="3.54006">
        <ele>563</ele>
        <time>2016-02-13T13:52:17Z</time>
      </trkpt>
      <trkpt lat="43.75855" lon="3.53978">
        <ele>554</ele>
        <time>2016-02-13T13:54:18Z</time>
      </trkpt>
      <trkpt lat="43.75832" lon="3.53906">
        <ele>540</ele>
        <time>2016-02-13T13:58:10Z</time>
      </trkpt>
      <trkpt lat="43.75819" lon="3.53842">
        <ele>532</ele>
        <time>2016-02-13T14:02:21Z</time>
      </trkpt>
      <trkpt lat="43.75804" lon="3.53832">
        <ele>527</ele>
        <time>2016-02-13T14:03:40Z</time>
      </trkpt>
      <trkpt lat="43.75797" lon="3.53805">
        <ele>525</ele>
        <time>2016-02-13T14:04:17Z</time>
      </trkpt>
      <trkpt lat="43.75771" lon="3.53763">
        <ele>524</ele>
        <time>2016-02-13T14:05:48Z</time>
      </trkpt>
      <trkpt lat="43.7577" lon="3.53729">
        <ele>525</ele>
        <time>2016-02-13T14:08:42Z</time>
      </trkpt>
      <trkpt lat="43.75727" lon="3.53668">
        <ele>534</ele>
        <time>2016-02-13T14:15:57Z</time>
      </trkpt>
      <trkpt lat="43.75715" lon="3.53624">
        <ele>542</ele>
        <time>2016-02-13T14:17:47Z</time>
      </trkpt>
      <trkpt lat="43.75689" lon="3.53609">
        <ele>544</ele>
        <time>2016-02-13T14:18:43Z</time>
      </trkpt>
      <trkpt lat="43.75663" lon="3.53606">
        <ele>545</ele>
        <time>2016-02-13T14:19:46Z</time>
      </trkpt>
      <trkpt lat="43.75653" lon="3.53577">
        <ele>541</ele>
        <time>2016-02-13T14:20:50Z</time>
      </trkpt>
      <trkpt lat="43.75643" lon="3.53599">
        <ele>543</ele>
        <time>2016-02-13T14:22:34Z</time>
      </trkpt>
      <trkpt lat="43.75629" lon="3.5361">
        <ele>541</ele>
        <time>2016-02-13T14:23:39Z</time>
      </trkpt>
      <trkpt lat="43.75587" lon="3.53672">
        <ele>538</ele>
        <time>2016-02-13T14:29:37Z</time>
      </trkpt>
      <trkpt lat="43.7557" lon="3.53689">
        <ele>536</ele>
        <time>2016-02-13T14:31:45Z</time>
      </trkpt>
      <trkpt lat="43.75528" lon="3.53681">
        <ele>534</ele>
        <time>2016-02-13T14:34:23Z</time>
      </trkpt>
      <trkpt lat="43.75519" lon="3.53708">
        <ele>534</ele>
        <time>2016-02-13T14:35:46Z</time>
      </trkpt>
      <trkpt lat="43.75474" lon="3.53722">
        <ele>535</ele>
        <time>2016-02-13T14:37:53Z</time>
      </trkpt>
      <trkpt lat="43.75458" lon="3.53716">
        <ele>535</ele>
        <time>2016-02-13T14:38:57Z</time>
      </trkpt>
      <trkpt lat="43.75402" lon="3.53796">
        <ele>531</ele>
        <time>2016-02-13T14:41:41Z</time>
      </trkpt>
      <trkpt lat="43.75448" lon="3.53735">
        <ele>536</ele>
        <time>2016-02-13T14:45:21Z</time>
      </trkpt>
      <trkpt lat="43.75441" lon="3.53708">
        <ele>536</ele>
        <time>2016-02-13T14:46:33Z</time>
      </trkpt>
      <trkpt lat="43.75447" lon="3.53682">
        <ele>536</ele>
        <time>2016-02-13T14:47:55Z</time>
      </trkpt>
      <trkpt lat="43.755" lon="3.53597">
        <ele>520</ele>
        <time>2016-02-13T14:49:58Z</time>
      </trkpt>
      <trkpt lat="43.75518" lon="3.53543">
        <ele>513</ele>
        <time>2016-02-13T14:51:14Z</time>
      </trkpt>
      <trkpt lat="43.75527" lon="3.53529">
        <ele>513</ele>
        <time>2016-02-13T14:51:31Z</time>
      </trkpt>
      <trkpt lat="43.75531" lon="3.53498">
        <ele>503</ele>
        <time>2016-02-13T14:51:55Z</time>
      </trkpt>
      <trkpt lat="43.75527" lon="3.53476">
        <ele>502</ele>
        <time>2016-02-13T14:59:02Z</time>
      </trkpt>
      <trkpt lat="43.75497" lon="3.53432">
        <ele>499</ele>
        <time>2016-02-13T14:59:40Z</time>
      </trkpt>
      <trkpt lat="43.75482" lon="3.53378">
        <ele>491</ele>
        <time>2016-02-13T15:00:15Z</time>
      </trkpt>
      <trkpt lat="43.75472" lon="3.53353">
        <ele>490</ele>
        <time>2016-02-13T15:00:31Z</time>
      </trkpt>
      <trkpt lat="43.75448" lon="3.53313">
        <ele>482</ele>
        <time>2016-02-13T15:01:02Z</time>
      </trkpt>
      <trkpt lat="43.75442" lon="3.53284">
        <ele>480</ele>
        <time>2016-02-13T15:01:20Z</time>
      </trkpt>
      <trkpt lat="43.7543" lon="3.53257">
        <ele>479</ele>
        <time>2016-02-13T15:01:38Z</time>
      </trkpt>
      <trkpt lat="43.75412" lon="3.53265">
        <ele>480</ele>
        <time>2016-02-13T15:01:58Z</time>
      </trkpt>
      <trkpt lat="43.75402" lon="3.53297">
        <ele>482</ele>
        <time>2016-02-13T15:02:18Z</time>
      </trkpt>
      <trkpt lat="43.75387" lon="3.53326">
        <ele>483</ele>
        <time>2016-02-13T15:02:39Z</time>
      </trkpt>
      <trkpt lat="43.7535" lon="3.53314">
        <ele>479</ele>
        <time>2016-02-13T15:03:12Z</time>
      </trkpt>
      <trkpt lat="43.75301" lon="3.53384">
        <ele>485</ele>
        <time>2016-02-13T15:04:34Z</time>
      </trkpt>
      <trkpt lat="43.7528" lon="3.53388">
        <ele>484</ele>
        <time>2016-02-13T15:04:52Z</time>
      </trkpt>
      <trkpt lat="43.75261" lon="3.53399">
        <ele>484</ele>
        <time>2016-02-13T15:05:09Z</time>
      </trkpt>
      <trkpt lat="43.75245" lon="3.53426">
        <ele>491</ele>
        <time>2016-02-13T15:05:29Z</time>
      </trkpt>
      <trkpt lat="43.75233" lon="3.53436">
        <ele>496</ele>
        <time>2016-02-13T15:05:37Z</time>
      </trkpt>
      <trkpt lat="43.75212" lon="3.53429">
        <ele>497</ele>
        <time>2016-02-13T15:05:52Z</time>
      </trkpt>
      <trkpt lat="43.75185" lon="3.53381">
        <ele>485</ele>
        <time>2016-02-13T15:06:24Z</time>
      </trkpt>
      <trkpt lat="43.75185" lon="3.53316">
        <ele>476</ele>
        <time>2016-02-13T15:07:03Z</time>
      </trkpt>
      <trkpt lat="43.75178" lon="3.53288">
        <ele>474</ele>
        <time>2016-02-13T15:07:20Z</time>
      </trkpt>
      <trkpt lat="43.75161" lon="3.53307">
        <ele>479</ele>
        <time>2016-02-13T15:07:47Z</time>
      </trkpt>
      <trkpt lat="43.75141" lon="3.53315">
        <ele>479</ele>
        <time>2016-02-13T15:08:03Z</time>
      </trkpt>
      <trkpt lat="43.75111" lon="3.53344">
        <ele>491</ele>
        <time>2016-02-13T15:08:31Z</time>
      </trkpt>
      <trkpt lat="43.75064" lon="3.53338">
        <ele>494</ele>
        <time>2016-02-13T15:09:08Z</time>
      </trkpt>
      <trkpt lat="43.75018" lon="3.53347">
        <ele>497</ele>
        <time>2016-02-13T15:09:41Z</time>
      </trkpt>
      <trkpt lat="43.75" lon="3.5333">
        <ele>488</ele>
        <time>2016-02-13T15:09:56Z</time>
      </trkpt>
      <trkpt lat="43.74989" lon="3.53302">
        <ele>485</ele>
        <time>2016-02-13T15:10:13Z</time>
      </trkpt>
      <trkpt lat="43.74949" lon="3.53291">
        <ele>484</ele>
        <time>2016-02-13T15:10:44Z</time>
      </trkpt>
      <trkpt lat="43.74912" lon="3.53253">
        <ele>474</ele>
        <time>2016-02-13T15:11:21Z</time>
      </trkpt>
      <trkpt lat="43.74893" lon="3.53259">
        <ele>478</ele>
        <time>2016-02-13T15:11:38Z</time>
      </trkpt>
      <trkpt lat="43.74878" lon="3.53283">
        <ele>481</ele>
        <time>2016-02-13T15:11:55Z</time>
      </trkpt>
      <trkpt lat="43.74815" lon="3.53323">
        <ele>484</ele>
        <time>2016-02-13T15:12:47Z</time>
      </trkpt>
      <trkpt lat="43.74757" lon="3.53295">
        <ele>480</ele>
        <time>2016-02-13T15:13:34Z</time>
      </trkpt>
      <trkpt lat="43.74716" lon="3.53291">
        <ele>480</ele>
        <time>2016-02-13T15:14:05Z</time>
      </trkpt>
      <trkpt lat="43.74677" lon="3.53313">
        <ele>483</ele>
        <time>2016-02-13T15:14:37Z</time>
      </trkpt>
      <trkpt lat="43.74655" lon="3.53311">
        <ele>489</ele>
        <time>2016-02-13T15:14:57Z</time>
      </trkpt>
      <trkpt lat="43.74642" lon="3.53287">
        <ele>488</ele>
        <time>2016-02-13T15:17:50Z</time>
      </trkpt>
      <trkpt lat="43.74644" lon="3.53235">
        <ele>481</ele>
        <time>2016-02-13T15:18:25Z</time>
      </trkpt>
      <trkpt lat="43.74638" lon="3.5321">
        <ele>482</ele>
        <time>2016-02-13T15:18:46Z</time>
      </trkpt>
      <trkpt lat="43.74627" lon="3.53187">
        <ele>482</ele>
        <time>2016-02-13T15:19:04Z</time>
      </trkpt>
      <trkpt lat="43.74642" lon="3.5313">
        <ele>476</ele>
        <time>2016-02-13T15:19:47Z</time>
      </trkpt>
      <trkpt lat="43.74644" lon="3.53102">
        <ele>474</ele>
        <time>2016-02-13T15:20:05Z</time>
      </trkpt>
      <trkpt lat="43.74637" lon="3.52988">
        <ele>475</ele>
        <time>2016-02-13T15:21:44Z</time>
      </trkpt>
      <trkpt lat="43.74657" lon="3.52976">
        <ele>474</ele>
        <time>2016-02-13T15:22:06Z</time>
      </trkpt>
      <trkpt lat="43.74706" lon="3.52986">
        <ele>472</ele>
        <time>2016-02-13T15:22:48Z</time>
      </trkpt>
      <trkpt lat="43.74729" lon="3.52981">
        <ele>472</ele>
        <time>2016-02-13T15:23:08Z</time>
      </trkpt>
      <trkpt lat="43.74742" lon="3.52957">
        <ele>474</ele>
        <time>2016-02-13T15:23:28Z</time>
      </trkpt>
      <trkpt lat="43.7471" lon="3.52933">
        <ele>476</ele>
        <time>2016-02-13T15:24:14Z</time>
      </trkpt>
      <trkpt lat="43.74718" lon="3.52905">
        <ele>480</ele>
        <time>2016-02-13T15:24:55Z</time>
      </trkpt>
      <trkpt lat="43.74707" lon="3.52892">
        <ele>481</ele>
        <time>2016-02-13T15:25:21Z</time>
      </trkpt>
      <trkpt lat="43.74625" lon="3.52835">
        <ele>486</ele>
        <time>2016-02-13T15:26:55Z</time>
      </trkpt>
      <trkpt lat="43.74603" lon="3.52816">
        <ele>486</ele>
        <time>2016-02-13T15:27:16Z</time>
      </trkpt>
      <trkpt lat="43.74596" lon="3.52799">
        <ele>485</ele>
        <time>2016-02-13T15:27:27Z</time>
      </trkpt>
      <trkpt lat="43.74588" lon="3.52762">
        <ele>484</ele>
        <time>2016-02-13T15:27:53Z</time>
      </trkpt>
      <trkpt lat="43.74588" lon="3.52724">
        <ele>475</ele>
        <time>2016-02-13T15:29:01Z</time>
      </trkpt>
      <trkpt lat="43.74596" lon="3.52704">
        <ele>472</ele>
        <time>2016-02-13T15:29:50Z</time>
      </trkpt>
      <trkpt lat="43.74584" lon="3.52681">
        <ele>473</ele>
        <time>2016-02-13T15:30:12Z</time>
      </trkpt>
      <trkpt lat="43.74579" lon="3.52618">
        <ele>485</ele>
        <time>2016-02-13T15:30:54Z</time>
      </trkpt>
      <trkpt lat="43.74568" lon="3.52555">
        <ele>487</ele>
        <time>2016-02-13T15:31:37Z</time>
      </trkpt>
      <trkpt lat="43.74573" lon="3.52486">
        <ele>487</ele>
        <time>2016-02-13T15:32:18Z</time>
      </trkpt>
      <trkpt lat="43.74583" lon="3.52456">
        <ele>491</ele>
        <time>2016-02-13T15:32:42Z</time>
      </trkpt>
      <trkpt lat="43.74606" lon="3.52419">
        <ele>470</ele>
        <time>2016-02-13T15:33:12Z</time>
      </trkpt>
      <trkpt lat="43.74571" lon="3.52389">
        <ele>490</ele>
        <time>2016-02-13T15:33:50Z</time>
      </trkpt>
      <trkpt lat="43.74556" lon="3.52368">
        <ele>492</ele>
        <time>2016-02-13T15:34:27Z</time>
      </trkpt>
      <trkpt lat="43.74556" lon="3.52335">
        <ele>490</ele>
        <time>2016-02-13T15:34:46Z</time>
      </trkpt>
      <trkpt lat="43.74565" lon="3.52308">
        <ele>484</ele>
        <time>2016-02-13T15:35:05Z</time>
      </trkpt>
      <trkpt lat="43.74567" lon="3.5228">
        <ele>483</ele>
        <time>2016-02-13T15:35:22Z</time>
      </trkpt>
      <trkpt lat="43.7456" lon="3.52221">
        <ele>474</ele>
        <time>2016-02-13T15:35:57Z</time>
      </trkpt>
      <trkpt lat="43.74552" lon="3.52198">
        <ele>473</ele>
        <time>2016-02-13T15:36:12Z</time>
      </trkpt>
      <trkpt lat="43.74534" lon="3.52189">
        <ele>474</ele>
        <time>2016-02-13T15:36:29Z</time>
      </trkpt>
      <trkpt lat="43.74511" lon="3.52201">
        <ele>477</ele>
        <time>2016-02-13T15:36:47Z</time>
      </trkpt>
      <trkpt lat="43.7445" lon="3.52213">
        <ele>480</ele>
        <time>2016-02-13T15:37:35Z</time>
      </trkpt>
      <trkpt lat="43.74432" lon="3.5223">
        <ele>482</ele>
        <time>2016-02-13T15:37:51Z</time>
      </trkpt>
      <trkpt lat="43.74406" lon="3.52272">
        <ele>484</ele>
        <time>2016-02-13T15:38:23Z</time>
      </trkpt>
      <trkpt lat="43.74368" lon="3.52283">
        <ele>481</ele>
        <time>2016-02-13T15:39:18Z</time>
      </trkpt>
      <trkpt lat="43.74377" lon="3.52348">
        <ele>486</ele>
        <time>2016-02-13T15:42:32Z</time>
      </trkpt>
      <trkpt lat="43.74372" lon="3.52389">
        <ele>485</ele>
        <time>2016-02-13T15:42:59Z</time>
      </trkpt>
      <trkpt lat="43.7435" lon="3.52419">
        <ele>477</ele>
        <time>2016-02-13T15:43:20Z</time>
      </trkpt>
      <trkpt lat="43.74347" lon="3.52448">
        <ele>479</ele>
        <time>2016-02-13T15:43:45Z</time>
      </trkpt>
      <trkpt lat="43.74352" lon="3.52485">
        <ele>475</ele>
        <time>2016-02-13T15:44:07Z</time>
      </trkpt>
      <trkpt lat="43.74337" lon="3.52479">
        <ele>472</ele>
        <time>2016-02-13T15:44:43Z</time>
      </trkpt>
      <trkpt lat="43.74342" lon="3.52506">
        <ele>463</ele>
        <time>2016-02-13T15:45:04Z</time>
      </trkpt>
      <trkpt lat="43.74324" lon="3.52496">
        <ele>448</ele>
        <time>2016-02-13T15:45:55Z</time>
      </trkpt>
      <trkpt lat="43.7433" lon="3.52527">
        <ele>433</ele>
        <time>2016-02-13T15:46:14Z</time>
      </trkpt>
      <trkpt lat="43.7434" lon="3.52551">
        <ele>463</ele>
        <time>2016-02-13T15:46:35Z</time>
      </trkpt>
      <trkpt lat="43.74343" lon="3.52588">
        <ele>446</ele>
        <time>2016-02-13T15:46:57Z</time>
      </trkpt>
      <trkpt lat="43.74337" lon="3.52608">
        <ele>450</ele>
        <time>2016-02-13T15:47:07Z</time>
      </trkpt>
      <trkpt lat="43.7434" lon="3.52585">
        <ele>444</ele>
        <time>2016-02-13T15:47:37Z</time>
      </trkpt>
      <trkpt lat="43.74323" lon="3.52605">
        <ele>419</ele>
        <time>2016-02-13T15:48:16Z</time>
      </trkpt>
      <trkpt lat="43.74315" lon="3.52635">
        <ele>413</ele>
        <time>2016-02-13T15:48:36Z</time>
      </trkpt>
      <trkpt lat="43.7433" lon="3.52653">
        <ele>418</ele>
        <time>2016-02-13T15:49:01Z</time>
      </trkpt>
      <trkpt lat="43.74339" lon="3.52725">
        <ele>430</ele>
        <time>2016-02-13T15:49:39Z</time>
      </trkpt>
      <trkpt lat="43.74362" lon="3.52788">
        <ele>417</ele>
        <time>2016-02-13T15:50:27Z</time>
      </trkpt>
      <trkpt lat="43.74367" lon="3.52823">
        <ele>412</ele>
        <time>2016-02-13T15:50:49Z</time>
      </trkpt>
      <trkpt lat="43.74352" lon="3.52803">
        <ele>411</ele>
        <time>2016-02-13T15:51:17Z</time>
      </trkpt>
      <trkpt lat="43.74305" lon="3.52769">
        <ele>381</ele>
        <time>2016-02-13T15:51:59Z</time>
      </trkpt>
      <trkpt lat="43.74294" lon="3.5274">
        <ele>391</ele>
        <time>2016-02-13T15:52:20Z</time>
      </trkpt>
      <trkpt lat="43.74249" lon="3.52721">
        <ele>360</ele>
        <time>2016-02-13T15:53:28Z</time>
      </trkpt>
      <trkpt lat="43.74231" lon="3.52703">
        <ele>359</ele>
        <time>2016-02-13T15:53:46Z</time>
      </trkpt>
      <trkpt lat="43.74224" lon="3.52674">
        <ele>362</ele>
        <time>2016-02-13T15:54:06Z</time>
      </trkpt>
      <trkpt lat="43.7421" lon="3.52641">
        <ele>361</ele>
        <time>2016-02-13T15:54:27Z</time>
      </trkpt>
      <trkpt lat="43.74207" lon="3.52606">
        <ele>360</ele>
        <time>2016-02-13T15:54:46Z</time>
      </trkpt>
      <trkpt lat="43.74199" lon="3.52575">
        <ele>362</ele>
        <time>2016-02-13T15:55:07Z</time>
      </trkpt>
      <trkpt lat="43.74175" lon="3.52504">
        <ele>358</ele>
        <time>2016-02-13T15:55:53Z</time>
      </trkpt>
      <trkpt lat="43.74162" lon="3.52483">
        <ele>355</ele>
        <time>2016-02-13T15:56:05Z</time>
      </trkpt>
      <trkpt lat="43.74143" lon="3.5249">
        <ele>354</ele>
        <time>2016-02-13T15:56:19Z</time>
      </trkpt>
      <trkpt lat="43.74105" lon="3.52522">
        <ele>336</ele>
        <time>2016-02-13T15:56:52Z</time>
      </trkpt>
      <trkpt lat="43.74079" lon="3.52528">
        <ele>320</ele>
        <time>2016-02-13T15:57:14Z</time>
      </trkpt>
      <trkpt lat="43.74049" lon="3.5248">
        <ele>327</ele>
        <time>2016-02-13T15:58:01Z</time>
      </trkpt>
      <trkpt lat="43.73994" lon="3.52368">
        <ele>315</ele>
        <time>2016-02-13T15:59:28Z</time>
      </trkpt>
      <trkpt lat="43.73996" lon="3.52334">
        <ele>317</ele>
        <time>2016-02-13T15:59:58Z</time>
      </trkpt>
      <trkpt lat="43.73984" lon="3.52225">
        <ele>321</ele>
        <time>2016-02-13T16:01:47Z</time>
      </trkpt>
      <trkpt lat="43.73973" lon="3.52248">
        <ele>321</ele>
        <time>2016-02-13T16:04:28Z</time>
      </trkpt>
      <trkpt lat="43.73919" lon="3.52329">
        <ele>314</ele>
        <time>2016-02-13T16:07:19Z</time>
      </trkpt>
      <trkpt lat="43.73919" lon="3.524">
        <ele>315</ele>
        <time>2016-02-13T16:08:17Z</time>
      </trkpt>
      <trkpt lat="43.73926" lon="3.52428">
        <ele>314</ele>
        <time>2016-02-13T16:08:38Z</time>
      </trkpt>
      <trkpt lat="43.73926" lon="3.52489">
        <ele>315</ele>
        <time>2016-02-13T16:09:20Z</time>
      </trkpt>
      <trkpt lat="43.73938" lon="3.52523">
        <ele>313</ele>
        <time>2016-02-13T16:09:41Z</time>
      </trkpt>
      <trkpt lat="43.73933" lon="3.5255">
        <ele>314</ele>
        <time>2016-02-13T16:10:01Z</time>
      </trkpt>
      <trkpt lat="43.73912" lon="3.52562">
        <ele>337</ele>
        <time>2016-02-13T16:10:21Z</time>
      </trkpt>
      <trkpt lat="43.73941" lon="3.52614">
        <ele>316</ele>
        <time>2016-02-13T16:11:05Z</time>
      </trkpt>
      <trkpt lat="43.73964" lon="3.52735">
        <ele>319</ele>
        <time>2016-02-13T16:12:20Z</time>
      </trkpt>
      <trkpt lat="43.73965" lon="3.52766">
        <ele>324</ele>
        <time>2016-02-13T16:12:42Z</time>
      </trkpt>
      <trkpt lat="43.73961" lon="3.52797">
        <ele>326</ele>
        <time>2016-02-13T16:13:04Z</time>
      </trkpt>
      <trkpt lat="43.7395" lon="3.52823">
        <ele>330</ele>
        <time>2016-02-13T16:13:26Z</time>
      </trkpt>
      <trkpt lat="43.73949" lon="3.52855">
        <ele>330</ele>
        <time>2016-02-13T16:13:47Z</time>
      </trkpt>
      <trkpt lat="43.73938" lon="3.52921">
        <ele>334</ele>
        <time>2016-02-13T16:14:31Z</time>
      </trkpt>
      <trkpt lat="43.7394" lon="3.52987">
        <ele>330</ele>
        <time>2016-02-13T16:15:10Z</time>
      </trkpt>
      <trkpt lat="43.73937" lon="3.5302">
        <ele>327</ele>
        <time>2016-02-13T16:15:31Z</time>
      </trkpt>
      <trkpt lat="43.73917" lon="3.53039">
        <ele>327</ele>
        <time>2016-02-13T16:15:55Z</time>
      </trkpt>
      <trkpt lat="43.7384" lon="3.53046">
        <ele>323</ele>
        <time>2016-02-13T16:17:54Z</time>
      </trkpt>
      <trkpt lat="43.73827" lon="3.53026">
        <ele>327</ele>
        <time>2016-02-13T16:18:21Z</time>
      </trkpt>
      <trkpt lat="43.73823" lon="3.52984">
        <ele>361</ele>
        <time>2016-02-13T16:18:59Z</time>
      </trkpt>
      <trkpt lat="43.73809" lon="3.52965">
        <ele>368</ele>
        <time>2016-02-13T16:19:17Z</time>
      </trkpt>
      <trkpt lat="43.73792" lon="3.52967">
        <ele>368</ele>
        <time>2016-02-13T16:19:45Z</time>
      </trkpt>
      <trkpt lat="43.7377" lon="3.52951">
        <ele>371</ele>
        <time>2016-02-13T16:20:21Z</time>
      </trkpt>
      <trkpt lat="43.73773" lon="3.52982">
        <ele>364</ele>
        <time>2016-02-13T16:20:48Z</time>
      </trkpt>
      <trkpt lat="43.73795" lon="3.52974">
        <ele>366</ele>
        <time>2016-02-13T16:21:15Z</time>
      </trkpt>
      <trkpt lat="43.73808" lon="3.52982">
        <ele>364</ele>
        <time>2016-02-13T16:21:27Z</time>
      </trkpt>
      <trkpt lat="43.73814" lon="3.53001">
        <ele>334</ele>
        <time>2016-02-13T16:22:26Z</time>
      </trkpt>
      <trkpt lat="43.73791" lon="3.52994">
        <ele>363</ele>
        <time>2016-02-13T16:23:00Z</time>
      </trkpt>
      <trkpt lat="43.73775" lon="3.53">
        <ele>333</ele>
        <time>2016-02-13T16:23:14Z</time>
      </trkpt>
      <trkpt lat="43.73764" lon="3.53018">
        <ele>330</ele>
        <time>2016-02-13T16:23:30Z</time>
      </trkpt>
      <trkpt lat="43.73745" lon="3.53032">
        <ele>331</ele>
        <time>2016-02-13T16:23:59Z</time>
      </trkpt>
      <trkpt lat="43.73721" lon="3.5304">
        <ele>329</ele>
        <time>2016-02-13T16:24:21Z</time>
      </trkpt>
      <trkpt lat="43.73688" lon="3.53071">
        <ele>318</ele>
        <time>2016-02-13T16:24:54Z</time>
      </trkpt>
      <trkpt lat="43.73655" lon="3.5313">
        <ele>323</ele>
        <time>2016-02-13T16:25:39Z</time>
      </trkpt>
      <trkpt lat="43.7364" lon="3.53182">
        <ele>312</ele>
        <time>2016-02-13T16:26:09Z</time>
      </trkpt>
      <trkpt lat="43.73634" lon="3.53252">
        <ele>305</ele>
        <time>2016-02-13T16:26:54Z</time>
      </trkpt>
      <trkpt lat="43.73624" lon="3.53286">
        <ele>313</ele>
        <time>2016-02-13T16:27:16Z</time>
      </trkpt>
      <trkpt lat="43.73611" lon="3.53314">
        <ele>325</ele>
        <time>2016-02-13T16:27:35Z</time>
      </trkpt>
      <trkpt lat="43.73593" lon="3.53385">
        <ele>317</ele>
        <time>2016-02-13T16:28:18Z</time>
      </trkpt>
      <trkpt lat="43.736" lon="3.53457">
        <ele>310</ele>
        <time>2016-02-13T16:29:08Z</time>
      </trkpt>
      <trkpt lat="43.73585" lon="3.53551">
        <ele>331</ele>
        <time>2016-02-13T16:30:11Z</time>
      </trkpt>
      <trkpt lat="43.73595" lon="3.53615">
        <ele>316</ele>
        <time>2016-02-13T16:31:04Z</time>
      </trkpt>
      <trkpt lat="43.736" lon="3.53715">
        <ele>301</ele>
        <time>2016-02-13T16:32:09Z</time>
      </trkpt>
      <trkpt lat="43.73612" lon="3.53747">
        <ele>301</ele>
        <time>2016-02-13T16:32:28Z</time>
      </trkpt>
      <trkpt lat="43.73626" lon="3.53837">
        <ele>266</ele>
        <time>2016-02-13T16:33:28Z</time>
      </trkpt>
      <trkpt lat="43.73612" lon="3.53896">
        <ele>254</ele>
        <time>2016-02-13T16:34:25Z</time>
      </trkpt>
      <trkpt lat="43.73584" lon="3.53951">
        <ele>223</ele>
        <time>2016-02-13T16:35:09Z</time>
      </trkpt>
      <trkpt lat="43.73566" lon="3.53972">
        <ele>235</ele>
        <time>2016-02-13T16:35:37Z</time>
      </trkpt>
      <trkpt lat="43.73544" lon="3.53981">
        <ele>238</ele>
        <time>2016-02-13T16:35:57Z</time>
      </trkpt>
      <trkpt lat="43.73522" lon="3.53983">
        <ele>241</ele>
        <time>2016-02-13T16:36:15Z</time>
      </trkpt>
      <trkpt lat="43.73509" lon="3.53998">
        <ele>240</ele>
        <time>2016-02-13T16:36:39Z</time>
      </trkpt>
      <trkpt lat="43.73528" lon="3.54099">
        <ele>225</ele>
        <time>2016-02-13T16:37:42Z</time>
      </trkpt>
      <trkpt lat="43.73544" lon="3.54129">
        <ele>221</ele>
        <time>2016-02-13T16:38:08Z</time>
      </trkpt>
      <trkpt lat="43.73556" lon="3.54144">
        <ele>217</ele>
        <time>2016-02-13T16:38:21Z</time>
      </trkpt>
      <trkpt lat="43.7357" lon="3.54175">
        <ele>212</ele>
        <time>2016-02-13T16:38:45Z</time>
      </trkpt>
      <trkpt lat="43.73589" lon="3.54223">
        <ele>188</ele>
        <time>2016-02-13T16:39:19Z</time>
      </trkpt>
      <trkpt lat="43.73593" lon="3.54254">
        <ele>190</ele>
        <time>2016-02-13T16:39:39Z</time>
      </trkpt>
      <trkpt lat="43.73603" lon="3.54228">
        <ele>186</ele>
        <time>2016-02-13T16:40:04Z</time>
      </trkpt>
      <trkpt lat="43.73609" lon="3.5414">
        <ele>185</ele>
        <time>2016-02-13T16:41:09Z</time>
      </trkpt>
      <trkpt lat="43.73623" lon="3.5417">
        <ele>181</ele>
        <time>2016-02-13T16:41:39Z</time>
      </trkpt>
      <trkpt lat="43.73638" lon="3.54221">
        <ele>177</ele>
        <time>2016-02-13T16:42:15Z</time>
      </trkpt>
      <trkpt lat="43.73639" lon="3.54253">
        <ele>170</ele>
        <time>2016-02-13T16:42:36Z</time>
      </trkpt>
      <trkpt lat="43.73611" lon="3.5436">
        <ele>165</ele>
        <time>2016-02-13T16:43:56Z</time>
      </trkpt>
      <trkpt lat="43.73613" lon="3.54478">
        <ele>155</ele>
        <time>2016-02-13T16:45:08Z</time>
      </trkpt>
      <trkpt lat="43.73638" lon="3.54425">
        <ele>147</ele>
        <time>2016-02-13T16:45:48Z</time>
      </trkpt>
      <trkpt lat="43.73642" lon="3.54452">
        <ele>146</ele>
        <time>2016-02-13T16:46:33Z</time>
      </trkpt>
      <trkpt lat="43.73636" lon="3.54523">
        <ele>141</ele>
        <time>2016-02-13T16:47:14Z</time>
      </trkpt>
      <trkpt lat="43.73643" lon="3.54608">
        <ele>133</ele>
        <time>2016-02-13T16:48:08Z</time>
      </trkpt>
      <trkpt lat="43.73649" lon="3.54639">
        <ele>132</ele>
        <time>2016-02-13T16:48:30Z</time>
      </trkpt>
      <trkpt lat="43.73668" lon="3.54658">
        <ele>123</ele>
        <time>2016-02-13T16:48:48Z</time>
      </trkpt>
      <trkpt lat="43.73668" lon="3.54694">
        <ele>128</ele>
        <time>2016-02-13T16:50:21Z</time>
      </trkpt>
      <trkpt lat="43.73653" lon="3.54751">
        <ele>118</ele>
        <time>2016-02-13T16:50:57Z</time>
      </trkpt>
      <trkpt lat="43.73629" lon="3.54753">
        <ele>119</ele>
        <time>2016-02-13T16:51:14Z</time>
      </trkpt>
      <trkpt lat="43.73581" lon="3.54745">
        <ele>118</ele>
        <time>2016-02-13T16:51:50Z</time>
      </trkpt>
      <trkpt lat="43.73509" lon="3.5472">
        <ele>124</ele>
        <time>2016-02-13T16:52:45Z</time>
      </trkpt>
      <trkpt lat="43.73485" lon="3.54719">
        <ele>126</ele>
        <time>2016-02-13T16:53:03Z</time>
      </trkpt>
      <trkpt lat="43.73459" lon="3.54727">
        <ele>126</ele>
        <time>2016-02-13T16:53:22Z</time>
      </trkpt>
      <trkpt lat="43.73418" lon="3.54757">
        <ele>114</ele>
        <time>2016-02-13T16:53:57Z</time>
      </trkpt>
      <trkpt lat="43.73396" lon="3.54777">
        <ele>117</ele>
        <time>2016-02-13T16:54:15Z</time>
      </trkpt>
      <trkpt lat="43.73383" lon="3.54801">
        <ele>116</ele>
        <time>2016-02-13T16:54:34Z</time>
      </trkpt>
      <trkpt lat="43.73367" lon="3.54819">
        <ele>115</ele>
        <time>2016-02-13T16:54:48Z</time>
      </trkpt>
      <trkpt lat="43.73345" lon="3.54813">
        <ele>116</ele>
        <time>2016-02-13T16:55:04Z</time>
      </trkpt>
      <trkpt lat="43.73321" lon="3.5483">
        <ele>124</ele>
        <time>2016-02-13T16:55:22Z</time>
      </trkpt>
      <trkpt lat="43.73297" lon="3.54919">
        <ele>121</ele>
        <time>2016-02-13T16:56:12Z</time>
      </trkpt>
      <trkpt lat="43.73294" lon="3.54952">
        <ele>123</ele>
        <time>2016-02-13T16:56:29Z</time>
      </trkpt>
      <trkpt lat="43.73298" lon="3.54972">
        <ele>122</ele>
        <time>2016-02-13T16:56:39Z</time>
      </trkpt>
      <trkpt lat="43.73314" lon="3.54999">
        <ele>116</ele>
        <time>2016-02-13T16:56:58Z</time>
      </trkpt>
      <trkpt lat="43.73325" lon="3.55115">
        <ele>116</ele>
        <time>2016-02-13T16:58:04Z</time>
      </trkpt>
      <trkpt lat="43.73354" lon="3.55197">
        <ele>103</ele>
        <time>2016-02-13T16:58:48Z</time>
      </trkpt>
      <trkpt lat="43.73308" lon="3.55307">
        <ele>96</ele>
        <time>2016-02-13T16:59:53Z</time>
      </trkpt>
      <trkpt lat="43.7329" lon="3.55363">
        <ele>84</ele>
        <time>2016-02-13T17:00:24Z</time>
      </trkpt>
      <trkpt lat="43.73268" lon="3.55367">
        <ele>84</ele>
        <time>2016-02-13T17:00:42Z</time>
      </trkpt>
      <trkpt lat="43.73193" lon="3.55335">
        <ele>80</ele>
        <time>2016-02-13T17:01:39Z</time>
      </trkpt>
      <trkpt lat="43.73146" lon="3.55324">
        <ele>84</ele>
        <time>2016-02-13T17:02:12Z</time>
      </trkpt>
      <trkpt lat="43.73076" lon="3.553">
        <ele>77</ele>
        <time>2016-02-13T17:03:07Z</time>
      </trkpt>
      <trkpt lat="43.73029" lon="3.55275">
        <ele>78</ele>
        <time>2016-02-13T17:03:42Z</time>
      </trkpt>
      <trkpt lat="43.73002" lon="3.55268">
        <ele>78</ele>
        <time>2016-02-13T17:04:04Z</time>
      </trkpt>
      <trkpt lat="43.72931" lon="3.55219">
        <ele>80</ele>
        <time>2016-02-13T17:05:17Z</time>
      </trkpt>
      <trkpt lat="43.7292" lon="3.55202">
        <ele>82</ele>
        <time>2016-02-13T17:05:27Z</time>
      </trkpt>
      <trkpt lat="43.72881" lon="3.55169">
        <ele>76</ele>
        <time>2016-02-13T17:06:04Z</time>
      </trkpt>
      <trkpt lat="43.72827" lon="3.55109">
        <ele>77</ele>
        <time>2016-02-13T17:07:02Z</time>
      </trkpt>
      <trkpt lat="43.72783" lon="3.55079">
        <ele>85</ele>
        <time>2016-02-13T17:07:41Z</time>
      </trkpt>
      <trkpt lat="43.72746" lon="3.55042">
        <ele>80</ele>
        <time>2016-02-13T17:08:20Z</time>
      </trkpt>
      <trkpt lat="43.727" lon="3.55022">
        <ele>80</ele>
        <time>2016-02-13T17:08:58Z</time>
      </trkpt>
      <trkpt lat="43.7267" lon="3.55013">
        <ele>79</ele>
        <time>2016-02-13T17:09:27Z</time>
      </trkpt>
      <trkpt lat="43.72575" lon="3.55006">
        <ele>71</ele>
        <time>2016-02-13T17:10:44Z</time>
      </trkpt>
      <trkpt lat="43.72463" lon="3.55035">
        <ele>70</ele>
        <time>2016-02-13T17:12:09Z</time>
      </trkpt>
      <trkpt lat="43.72433" lon="3.55049">
        <ele>69</ele>
        <time>2016-02-13T17:12:33Z</time>
      </trkpt>
    </trkseg>
  </trk>
</gpx>